createdAt,value
2019-02-26T00:00:36.311Z,96.26
2019-02-26T00:01:36.298Z,96.55
2019-02-26T00:02:36.300Z,96.64
2019-02-26T00:03:37.904Z,96.45
2019-02-26T00:04:38.776Z,96.55
2019-02-26T00:05:36.256Z,96.83
2019-02-26T00:06:36.256Z,97.4
2019-02-26T00:07:36.014Z,97.12
2019-02-26T00:08:35.994Z,97.4
2019-02-26T00:09:37.826Z,97.4
2019-02-26T00:10:39.148Z,97.31
2019-02-26T00:11:40.197Z,97.02
2019-02-26T00:12:37.766Z,97.21
2019-02-26T00:13:38.208Z,97.12
2019-02-26T00:14:36.189Z,97.02
2019-02-26T00:15:40.422Z,97.31
2019-02-26T00:16:42.365Z,97.97
2019-02-26T00:17:43.062Z,98.07
2019-02-26T00:18:36.152Z,97.59
2019-02-26T00:19:36.137Z,97.31
2019-02-26T00:20:39.685Z,97.5
2019-02-26T00:21:35.906Z,97.21
2019-02-26T00:22:38.960Z,97.69
2019-02-26T00:23:35.848Z,97.02
2019-02-26T00:24:39.798Z,96.55
2019-02-26T00:25:36.080Z,96.73
2019-02-26T00:26:38.978Z,96.83
2019-02-26T00:27:37.328Z,97.5
2019-02-26T00:28:39.075Z,97.12
2019-02-26T00:29:36.050Z,97.5
2019-02-26T00:30:40.306Z,97.5
2019-02-26T00:31:36.032Z,97.5
2019-02-26T00:32:38.654Z,97.4
2019-02-26T00:33:36.026Z,97.5
2019-02-26T00:34:39.018Z,97.21
2019-02-26T00:35:35.999Z,97.12
2019-02-26T00:36:38.236Z,97.21
2019-02-26T00:37:35.725Z,97.31
2019-02-26T00:38:39.913Z,97.02
2019-02-26T00:39:35.713Z,97.4
2019-02-26T00:40:39.148Z,97.4
2019-02-26T00:41:40.086Z,98.07
2019-02-26T00:42:38.293Z,97.88
2019-02-26T00:43:38.782Z,97.59
2019-02-26T00:44:39.437Z,98.25
2019-02-26T00:45:38.977Z,97.88
2019-02-26T00:46:39.445Z,98.16
2019-02-26T00:47:38.777Z,98.82
2019-02-26T00:48:40.300Z,98.63
2019-02-26T00:49:35.873Z,97.88
2019-02-26T00:50:39.776Z,98.25
2019-02-26T00:51:35.611Z,98.16
2019-02-26T00:52:39.257Z,98.73
2019-02-26T00:53:35.847Z,99.15
2019-02-26T00:54:37.278Z,98.63
2019-02-26T00:55:39.663Z,98.73
2019-02-26T00:56:38.540Z,98.82
2019-02-26T00:57:38.921Z,99.15
2019-02-26T00:58:41.494Z,99.25
2019-02-26T00:59:41.163Z,99.77
2019-02-26T01:00:37.791Z,99.49
2019-02-26T01:01:35.533Z,99.77
2019-02-26T01:02:35.757Z,99.77
2019-02-26T01:03:35.745Z,98.68
2019-02-26T01:04:35.486Z,99.63
2019-02-26T01:05:39.011Z,99.82
2019-02-26T01:06:35.989Z,99.34
2019-02-26T01:07:35.703Z,99.44
2019-02-26T01:08:36.257Z,99.72
2019-02-26T01:09:36.487Z,99.99
2019-02-26T01:10:39.643Z,99.99
2019-02-26T01:11:35.428Z,99.99
2019-02-26T01:12:40.204Z,99.99
2019-02-26T01:13:35.650Z,99.99
2019-02-26T01:14:35.652Z,99.99
2019-02-26T01:15:35.386Z,99.99
2019-02-26T01:16:37.043Z,99.99
2019-02-26T01:17:38.378Z,99.99
2019-02-26T01:18:35.611Z,99.99
2019-02-26T01:19:39.057Z,99.99
2019-02-26T01:20:35.594Z,99.87
2019-02-26T01:21:37.977Z,99.99
2019-02-26T01:22:39.890Z,99.99
2019-02-26T01:23:35.319Z,99.87
2019-02-26T01:24:35.557Z,99.99
2019-02-26T01:25:38.187Z,99.99
2019-02-26T01:26:35.533Z,99.99
2019-02-26T01:27:35.527Z,99.99
2019-02-26T01:28:35.518Z,99.99
2019-02-26T01:29:35.514Z,99.82
2019-02-26T01:30:38.389Z,99.99
2019-02-26T01:31:36.427Z,99.99
2019-02-26T01:32:35.490Z,99.99
2019-02-26T01:33:36.492Z,99.99
2019-02-26T01:34:35.494Z,99.99
2019-02-26T01:35:37.953Z,99.99
2019-02-26T01:36:35.453Z,99.99
2019-02-26T01:37:38.890Z,99.99
2019-02-26T01:38:37.382Z,99.99
2019-02-26T01:39:35.611Z,99.99
2019-02-26T01:40:35.159Z,99.99
2019-02-26T01:41:35.151Z,99.99
2019-02-26T01:42:35.143Z,99.99
2019-02-26T01:43:35.137Z,99.99
2019-02-26T01:44:39.888Z,99.99
2019-02-26T01:45:35.367Z,99.99
2019-02-26T01:46:38.894Z,99.99
2019-02-26T01:47:35.104Z,99.99
2019-02-26T01:48:38.863Z,99.99
2019-02-26T01:49:35.077Z,99.99
2019-02-26T01:50:40.166Z,99.99
2019-02-26T01:51:35.061Z,99.99
2019-02-26T01:52:35.068Z,99.99
2019-02-26T01:53:35.296Z,99.99
2019-02-26T01:54:39.493Z,99.99
2019-02-26T01:55:35.269Z,99.99
2019-02-26T01:56:38.727Z,99.99
2019-02-26T01:57:35.001Z,99.99
2019-02-26T01:58:36.419Z,99.99
2019-02-26T01:59:36.766Z,99.99
2019-02-26T02:00:35.227Z,99.99
2019-02-26T02:01:34.960Z,99.99
2019-02-26T02:02:35.284Z,99.99
2019-02-26T02:03:35.204Z,99.99
2019-02-26T02:04:39.363Z,99.99
2019-02-26T02:05:35.182Z,99.99
2019-02-26T02:06:39.091Z,99.99
2019-02-26T02:07:35.163Z,99.99
2019-02-26T02:08:39.032Z,99.99
2019-02-26T02:09:35.138Z,99.99
2019-02-26T02:10:35.140Z,99.99
2019-02-26T02:11:38.583Z,99.99
2019-02-26T02:12:39.185Z,99.99
2019-02-26T02:13:38.524Z,99.99
2019-02-26T02:14:35.099Z,99.99
2019-02-26T02:15:35.647Z,99.99
2019-02-26T02:16:36.000Z,99.99
2019-02-26T02:17:38.385Z,99.99
2019-02-26T02:18:35.053Z,99.99
2019-02-26T02:19:34.862Z,99.99
2019-02-26T02:20:35.046Z,99.99
2019-02-26T02:21:37.651Z,99.99
2019-02-26T02:22:37.494Z,99.99
2019-02-26T02:23:35.030Z,99.99
2019-02-26T02:24:38.932Z,99.99
2019-02-26T02:25:38.613Z,99.99
2019-02-26T02:26:35.042Z,99.99
2019-02-26T02:27:35.768Z,99.99
2019-02-26T02:28:37.268Z,99.99
2019-02-26T02:29:34.951Z,99.99
2019-02-26T02:30:39.080Z,99.99
2019-02-26T02:31:38.346Z,99.99
2019-02-26T02:32:36.684Z,99.99
2019-02-26T02:33:37.585Z,99.99
2019-02-26T02:34:39.827Z,99.99
2019-02-26T02:35:34.892Z,99.99
2019-02-26T02:36:34.888Z,99.99
2019-02-26T02:37:34.632Z,99.99
2019-02-26T02:38:39.011Z,99.99
2019-02-26T02:39:34.612Z,99.99
2019-02-26T02:40:34.604Z,99.99
2019-02-26T02:41:34.849Z,99.99
2019-02-26T02:42:40.147Z,99.99
2019-02-26T02:43:34.824Z,99.99
2019-02-26T02:44:34.571Z,99.99
2019-02-26T02:45:34.805Z,99.99
2019-02-26T02:46:37.291Z,99.99
2019-02-26T02:47:38.766Z,99.99
2019-02-26T02:48:34.781Z,99.99
2019-02-26T02:49:39.822Z,99.99
2019-02-26T02:50:34.781Z,99.99
2019-02-26T02:51:39.513Z,99.99
2019-02-26T02:52:37.992Z,99.99
2019-02-26T02:53:34.883Z,99.99
2019-02-26T02:54:34.714Z,99.99
2019-02-26T02:55:34.713Z,99.99
2019-02-26T02:56:39.149Z,99.99
2019-02-26T02:57:36.781Z,99.99
2019-02-26T02:58:34.432Z,99.99
2019-02-26T02:59:39.385Z,99.99
2019-02-26T03:00:36.932Z,99.99
2019-02-26T03:01:34.650Z,99.99
2019-02-26T03:02:42.734Z,99.99
2019-02-26T03:03:34.382Z,99.99
2019-02-26T03:04:37.168Z,99.99
2019-02-26T03:05:41.087Z,99.99
2019-02-26T03:06:38.480Z,99.99
2019-02-26T03:07:34.343Z,99.99
2019-02-26T03:08:34.613Z,99.99
2019-02-26T03:09:40.624Z,99.99
2019-02-26T03:10:40.086Z,99.99
2019-02-26T03:11:40.951Z,99.99
2019-02-26T03:12:34.546Z,99.99
2019-02-26T03:13:34.290Z,99.99
2019-02-26T03:14:39.017Z,99.99
2019-02-26T03:15:38.022Z,99.99
2019-02-26T03:16:34.263Z,99.99
2019-02-26T03:17:34.502Z,99.99
2019-02-26T03:18:34.242Z,99.99
2019-02-26T03:19:40.356Z,99.99
2019-02-26T03:20:42.076Z,99.99
2019-02-26T03:21:34.215Z,99.99
2019-02-26T03:22:39.597Z,99.99
2019-02-26T03:23:40.957Z,99.99
2019-02-26T03:24:38.184Z,99.99
2019-02-26T03:25:34.421Z,99.99
2019-02-26T03:26:34.168Z,99.99
2019-02-26T03:27:39.773Z,99.99
2019-02-26T03:28:39.491Z,99.99
2019-02-26T03:29:34.133Z,99.99
2019-02-26T03:30:44.106Z,99.99
2019-02-26T03:31:40.493Z,99.99
2019-02-26T03:32:36.394Z,99.99
2019-02-26T03:33:34.188Z,99.99
2019-02-26T03:34:34.580Z,99.99
2019-02-26T03:35:34.070Z,99.99
2019-02-26T03:36:40.159Z,99.99
2019-02-26T03:37:38.234Z,99.99
2019-02-26T03:38:34.286Z,99.99
2019-02-26T03:39:34.287Z,99.99
2019-02-26T03:40:36.350Z,99.99
2019-02-26T03:41:34.436Z,99.99
2019-02-26T03:42:38.879Z,99.99
2019-02-26T03:43:38.858Z,99.99
2019-02-26T03:44:34.230Z,99.99
2019-02-26T03:45:34.226Z,99.99
2019-02-26T03:46:34.219Z,99.99
2019-02-26T03:47:34.203Z,99.99
2019-02-26T03:48:34.192Z,99.99
2019-02-26T03:49:34.179Z,99.99
2019-02-26T03:50:34.284Z,99.99
2019-02-26T03:51:38.860Z,99.99
2019-02-26T03:52:34.661Z,99.99
2019-02-26T03:53:39.123Z,99.99
2019-02-26T03:54:37.040Z,99.99
2019-02-26T03:55:38.956Z,99.99
2019-02-26T03:56:34.131Z,99.99
2019-02-26T03:57:34.125Z,99.99
2019-02-26T03:58:34.098Z,99.99
2019-02-26T03:59:33.841Z,99.99
2019-02-26T04:00:38.652Z,99.99
2019-02-26T04:01:34.061Z,99.99
2019-02-26T04:02:33.797Z,99.99
2019-02-26T04:03:37.507Z,99.99
2019-02-26T04:04:35.841Z,99.99
2019-02-26T04:05:34.027Z,99.99
2019-02-26T04:06:38.397Z,99.99
2019-02-26T04:07:36.445Z,99.99
2019-02-26T04:08:33.991Z,99.99
2019-02-26T04:09:33.980Z,99.99
2019-02-26T04:10:33.984Z,99.99
2019-02-26T04:11:33.733Z,99.99
2019-02-26T04:12:41.770Z,99.99
2019-02-26T04:13:33.946Z,99.99
2019-02-26T04:14:33.933Z,99.99
2019-02-26T04:15:38.334Z,99.99
2019-02-26T04:16:37.770Z,99.99
2019-02-26T04:17:39.993Z,99.99
2019-02-26T04:18:37.159Z,99.99
2019-02-26T04:19:33.638Z,99.99
2019-02-26T04:20:33.868Z,99.99
2019-02-26T04:21:33.617Z,99.99
2019-02-26T04:22:33.868Z,99.99
2019-02-26T04:23:38.799Z,99.99
2019-02-26T04:24:38.056Z,99.99
2019-02-26T04:25:37.896Z,99.99
2019-02-26T04:26:37.313Z,99.99
2019-02-26T04:27:38.767Z,99.99
2019-02-26T04:28:39.329Z,99.99
2019-02-26T04:29:38.577Z,99.99
2019-02-26T04:30:39.661Z,99.99
2019-02-26T04:31:33.763Z,99.99
2019-02-26T04:32:35.570Z,99.99
2019-02-26T04:33:38.445Z,99.99
2019-02-26T04:34:33.740Z,99.99
2019-02-26T04:35:33.723Z,99.99
2019-02-26T04:36:34.348Z,99.99
2019-02-26T04:37:38.451Z,99.99
2019-02-26T04:38:33.741Z,99.99
2019-02-26T04:39:34.371Z,99.99
2019-02-26T04:40:38.173Z,99.99
2019-02-26T04:41:35.129Z,99.99
2019-02-26T04:42:38.232Z,99.99
2019-02-26T04:43:38.738Z,99.99
2019-02-26T04:44:36.270Z,99.99
2019-02-26T04:45:33.618Z,99.99
2019-02-26T04:46:36.716Z,99.99
2019-02-26T04:47:36.350Z,99.99
2019-02-26T04:48:36.592Z,99.99
2019-02-26T04:49:39.195Z,99.99
2019-02-26T04:50:38.600Z,99.99
2019-02-26T04:51:34.233Z,99.99
2019-02-26T04:52:37.319Z,99.99
2019-02-26T04:53:36.371Z,99.99
2019-02-26T04:54:39.299Z,99.99
2019-02-26T04:55:39.030Z,99.99
2019-02-26T04:56:39.375Z,99.99
2019-02-26T04:57:33.490Z,99.99
2019-02-26T04:58:34.295Z,99.99
2019-02-26T04:59:38.565Z,99.99
2019-02-26T05:00:38.701Z,99.99
2019-02-26T05:01:34.709Z,99.99
2019-02-26T05:02:33.451Z,99.99
2019-02-26T05:03:33.430Z,99.99
2019-02-26T05:04:39.353Z,99.99
2019-02-26T05:05:37.236Z,99.99
2019-02-26T05:06:33.177Z,99.99
2019-02-26T05:07:36.110Z,99.99
2019-02-26T05:08:37.576Z,99.99
2019-02-26T05:09:37.594Z,99.99
2019-02-26T05:10:35.920Z,99.99
2019-02-26T05:11:40.536Z,99.99
2019-02-26T05:12:40.067Z,99.99
2019-02-26T05:13:36.582Z,99.99
2019-02-26T05:14:33.342Z,99.99
2019-02-26T05:15:35.611Z,99.99
2019-02-26T05:16:37.698Z,99.99
2019-02-26T05:17:35.751Z,99.99
2019-02-26T05:18:36.249Z,99.99
2019-02-26T05:19:33.268Z,99.99
2019-02-26T05:20:36.773Z,99.99
2019-02-26T05:21:37.983Z,99.99
2019-02-26T05:22:35.690Z,99.99
2019-02-26T05:23:35.939Z,99.99
2019-02-26T05:24:33.225Z,99.99
2019-02-26T05:25:36.864Z,99.99
2019-02-26T05:26:33.191Z,99.99
2019-02-26T05:27:33.189Z,99.99
2019-02-26T05:28:40.812Z,99.99
2019-02-26T05:29:33.179Z,99.99
2019-02-26T05:30:33.165Z,99.99
2019-02-26T05:31:37.731Z,99.99
2019-02-26T05:32:35.617Z,99.99
2019-02-26T05:33:35.170Z,99.99
2019-02-26T05:34:33.264Z,99.99
2019-02-26T05:35:33.116Z,99.99
2019-02-26T05:36:37.156Z,99.99
2019-02-26T05:37:40.338Z,99.99
2019-02-26T05:38:37.633Z,99.99
2019-02-26T05:39:33.056Z,99.99
2019-02-26T05:40:37.396Z,99.99
2019-02-26T05:41:33.032Z,99.99
2019-02-26T05:42:33.027Z,99.99
2019-02-26T05:43:36.330Z,99.99
2019-02-26T05:44:33.012Z,99.99
2019-02-26T05:45:37.326Z,99.99
2019-02-26T05:46:32.983Z,99.99
2019-02-26T05:47:32.972Z,99.99
2019-02-26T05:48:32.972Z,99.99
2019-02-26T05:49:38.354Z,99.99
2019-02-26T05:50:38.427Z,99.99
2019-02-26T05:51:38.016Z,99.99
2019-02-26T05:52:35.954Z,99.99
2019-02-26T05:53:32.921Z,99.99
2019-02-26T05:54:32.905Z,99.99
2019-02-26T05:55:32.660Z,99.99
2019-02-26T05:56:34.044Z,99.99
2019-02-26T05:57:35.042Z,99.99
2019-02-26T05:58:33.533Z,99.99
2019-02-26T05:59:32.597Z,99.99
2019-02-26T06:00:35.634Z,99.99
2019-02-26T06:01:32.585Z,99.99
2019-02-26T06:02:32.624Z,99.99
2019-02-26T06:03:32.816Z,99.99
2019-02-26T06:04:35.689Z,99.99
2019-02-26T06:05:32.543Z,99.99
2019-02-26T06:06:32.848Z,99.99
2019-02-26T06:07:38.559Z,99.99
2019-02-26T06:08:38.487Z,99.99
2019-02-26T06:09:35.771Z,99.99
2019-02-26T06:10:35.034Z,99.99
2019-02-26T06:11:38.614Z,99.99
2019-02-26T06:12:36.263Z,99.99
2019-02-26T06:13:35.551Z,99.99
2019-02-26T06:14:38.654Z,99.99
2019-02-26T06:15:35.990Z,99.99
2019-02-26T06:16:33.952Z,99.99
2019-02-26T06:17:35.182Z,99.99
2019-02-26T06:18:32.662Z,99.99
2019-02-26T06:19:37.775Z,99.99
2019-02-26T06:20:36.574Z,99.99
2019-02-26T06:21:32.385Z,99.99
2019-02-26T06:22:34.650Z,99.99
2019-02-26T06:23:36.597Z,99.99
2019-02-26T06:24:36.267Z,99.99
2019-02-26T06:25:32.637Z,99.99
2019-02-26T06:26:36.059Z,99.99
2019-02-26T06:27:32.324Z,99.99
2019-02-26T06:28:35.369Z,99.99
2019-02-26T06:29:36.988Z,99.99
2019-02-26T06:30:32.546Z,99.99
2019-02-26T06:31:32.282Z,99.99
2019-02-26T06:32:37.732Z,99.99
2019-02-26T06:33:38.379Z,99.99
2019-02-26T06:34:32.500Z,99.99
2019-02-26T06:35:35.974Z,99.99
2019-02-26T06:36:32.910Z,99.99
2019-02-26T06:37:35.473Z,99.99
2019-02-26T06:38:35.121Z,99.99
2019-02-26T06:39:36.245Z,99.99
2019-02-26T06:40:38.863Z,99.99
2019-02-26T06:41:32.177Z,99.99
2019-02-26T06:42:37.876Z,99.99
2019-02-26T06:43:35.387Z,99.99
2019-02-26T06:44:32.402Z,99.99
2019-02-26T06:45:32.144Z,99.99
2019-02-26T06:46:38.274Z,99.99
2019-02-26T06:47:35.289Z,99.99
2019-02-26T06:48:34.699Z,99.99
2019-02-26T06:49:32.340Z,99.99
2019-02-26T06:50:34.755Z,99.99
2019-02-26T06:51:32.972Z,99.99
2019-02-26T06:52:39.852Z,99.99
2019-02-26T06:53:32.311Z,99.99
2019-02-26T06:54:34.260Z,99.99
2019-02-26T06:55:32.299Z,99.99
2019-02-26T06:56:35.005Z,99.99
2019-02-26T06:57:32.269Z,99.99
2019-02-26T06:58:32.266Z,99.99
2019-02-26T06:59:36.771Z,99.99
2019-02-26T07:00:32.244Z,99.99
2019-02-26T07:01:35.566Z,99.99
2019-02-26T07:02:32.238Z,99.99
2019-02-26T07:03:31.974Z,99.99
2019-02-26T07:04:32.649Z,99.99
2019-02-26T07:05:32.195Z,99.99
2019-02-26T07:06:34.982Z,99.99
2019-02-26T07:07:32.175Z,99.99
2019-02-26T07:08:33.454Z,99.99
2019-02-26T07:09:32.360Z,99.99
2019-02-26T07:10:35.889Z,99.99
2019-02-26T07:11:37.821Z,99.99
2019-02-26T07:12:32.121Z,99.99
2019-02-26T07:13:33.847Z,99.99
2019-02-26T07:14:34.582Z,99.99
2019-02-26T07:15:32.102Z,99.99
2019-02-26T07:16:32.080Z,99.99
2019-02-26T07:17:38.334Z,99.99
2019-02-26T07:18:31.838Z,99.99
2019-02-26T07:19:35.736Z,99.99
2019-02-26T07:20:39.353Z,99.99
2019-02-26T07:21:32.037Z,99.99
2019-02-26T07:22:31.781Z,99.99
2019-02-26T07:23:35.894Z,99.99
2019-02-26T07:24:32.037Z,99.99
2019-02-26T07:25:38.415Z,99.99
2019-02-26T07:26:31.995Z,99.99
2019-02-26T07:27:35.979Z,99.99
2019-02-26T07:28:31.726Z,99.96
2019-02-26T07:29:39.437Z,99.99
2019-02-26T07:30:32.576Z,99.2
2019-02-26T07:31:35.597Z,99.58
2019-02-26T07:32:31.718Z,99.3
2019-02-26T07:33:36.536Z,98.92
2019-02-26T07:34:31.919Z,99.01
2019-02-26T07:35:34.939Z,99.01
2019-02-26T07:36:31.660Z,97.83
2019-02-26T07:37:36.159Z,94.56
2019-02-26T07:38:40.492Z,90.57
2019-02-26T07:39:31.881Z,87.29
2019-02-26T07:40:38.391Z,84.2
2019-02-26T07:41:32.793Z,81.77
2019-02-26T07:42:36.832Z,79.49
2019-02-26T07:43:31.927Z,77.53
2019-02-26T07:44:31.864Z,76.01
2019-02-26T07:45:34.449Z,74.39
2019-02-26T07:46:33.628Z,73
2019-02-26T07:47:34.234Z,71.7
2019-02-26T07:48:33.791Z,70.08
2019-02-26T07:49:31.590Z,68.84
2019-02-26T07:50:40.875Z,68.21
2019-02-26T07:51:36.181Z,67.74
2019-02-26T07:52:35.104Z,66.97
2019-02-26T07:53:31.814Z,65.1
2019-02-26T07:54:31.559Z,63.67
2019-02-26T07:55:35.806Z,62.84
2019-02-26T07:56:34.488Z,62.75
2019-02-26T07:57:31.808Z,62.81
2019-02-26T07:58:35.944Z,63.29
2019-02-26T07:59:36.806Z,63.57
2019-02-26T08:00:37.161Z,63.48
2019-02-26T08:01:31.547Z,62.18
2019-02-26T08:02:34.850Z,60.65
2019-02-26T08:03:31.654Z,60.11
2019-02-26T08:04:33.671Z,59.25
2019-02-26T08:05:31.785Z,58.97
2019-02-26T08:06:34.269Z,58.14
2019-02-26T08:07:33.250Z,56.92
2019-02-26T08:08:31.523Z,55.77
2019-02-26T08:09:31.529Z,56.06
2019-02-26T08:10:35.079Z,55.55
2019-02-26T08:11:31.571Z,56.32
2019-02-26T08:12:36.160Z,56.6
2019-02-26T08:13:36.380Z,56.99
2019-02-26T08:14:31.774Z,56.51
2019-02-26T08:15:35.216Z,56.63
2019-02-26T08:16:32.476Z,55.87
2019-02-26T08:17:31.781Z,55.58
2019-02-26T08:18:31.765Z,54.75
2019-02-26T08:19:34.412Z,54.91
2019-02-26T08:20:35.588Z,55.58
2019-02-26T08:21:32.226Z,55.58
2019-02-26T08:22:36.238Z,55.2
2019-02-26T08:23:31.762Z,54.91
2019-02-26T08:24:31.771Z,54.82
2019-02-26T08:25:31.764Z,55.3
2019-02-26T08:26:31.765Z,55.49
2019-02-26T08:27:36.059Z,55.11
2019-02-26T08:28:31.524Z,55.58
2019-02-26T08:29:36.106Z,56.23
2019-02-26T08:30:31.761Z,57.56
2019-02-26T08:31:31.761Z,57.92
2019-02-26T08:32:32.990Z,58.97
2019-02-26T08:33:31.510Z,60.75
2019-02-26T08:34:31.761Z,61.86
2019-02-26T08:35:31.753Z,63.67
2019-02-26T08:36:31.507Z,65.07
2019-02-26T08:37:31.508Z,66.46
2019-02-26T08:38:32.673Z,67.8
2019-02-26T08:39:31.527Z,68.9
2019-02-26T08:40:31.764Z,70.52
2019-02-26T08:41:31.748Z,70.87
2019-02-26T08:42:31.567Z,72.2
2019-02-26T08:43:31.740Z,73.63
2019-02-26T08:44:31.485Z,74.2
2019-02-26T08:45:33.626Z,75.05
2019-02-26T08:46:31.531Z,76.25
2019-02-26T08:47:31.725Z,76.63
2019-02-26T08:48:31.471Z,77.49
2019-02-26T08:49:31.473Z,77.39
2019-02-26T08:50:36.145Z,77.49
2019-02-26T08:51:32.510Z,77.49
2019-02-26T08:52:31.894Z,77.3
2019-02-26T08:53:33.996Z,77.97
2019-02-26T08:54:35.853Z,77.68
2019-02-26T08:55:31.695Z,78.25
2019-02-26T08:56:36.245Z,77.77
2019-02-26T08:57:31.677Z,78.34
2019-02-26T08:58:31.439Z,78.88
2019-02-26T08:59:31.670Z,78.69
2019-02-26T09:00:31.425Z,79.2
2019-02-26T09:01:31.670Z,79.11
2019-02-26T09:02:31.417Z,79.01
2019-02-26T09:03:40.103Z,78.91
2019-02-26T09:04:31.433Z,79.01
2019-02-26T09:05:36.784Z,79.49
2019-02-26T09:06:31.429Z,79.49
2019-02-26T09:07:31.630Z,79.49
2019-02-26T09:08:35.373Z,79.39
2019-02-26T09:09:33.422Z,79.11
2019-02-26T09:10:31.612Z,78.91
2019-02-26T09:11:35.921Z,79.01
2019-02-26T09:12:32.112Z,78.72
2019-02-26T09:13:36.104Z,78.63
2019-02-26T09:14:37.202Z,78.16
2019-02-26T09:15:35.990Z,78.34
2019-02-26T09:16:34.754Z,78.06
2019-02-26T09:17:35.184Z,78.29
2019-02-26T09:18:37.567Z,77.81
2019-02-26T09:19:35.373Z,77.72
2019-02-26T09:20:31.561Z,77.15
2019-02-26T09:21:31.699Z,77.62
2019-02-26T09:22:31.542Z,77.62
2019-02-26T09:23:33.132Z,77.81
2019-02-26T09:24:31.540Z,77.43
2019-02-26T09:25:34.028Z,76.76
2019-02-26T09:26:31.514Z,77.15
2019-02-26T09:27:34.463Z,77.62
2019-02-26T09:28:32.399Z,76.96
2019-02-26T09:29:31.539Z,76.76
2019-02-26T09:30:36.399Z,76.2
2019-02-26T09:31:31.492Z,76.14
2019-02-26T09:32:32.635Z,76.23
2019-02-26T09:33:36.123Z,76.42
2019-02-26T09:34:36.945Z,76.14
2019-02-26T09:35:34.862Z,75.57
2019-02-26T09:36:31.883Z,75.47
2019-02-26T09:37:31.462Z,74.99
2019-02-26T09:38:31.454Z,74.62
2019-02-26T09:39:34.543Z,74.8
2019-02-26T09:40:35.990Z,74.37
2019-02-26T09:41:33.276Z,74.46
2019-02-26T09:42:34.066Z,74.27
2019-02-26T09:43:31.199Z,74.08
2019-02-26T09:44:35.643Z,73.89
2019-02-26T09:45:32.607Z,73.7
2019-02-26T09:46:36.287Z,73.41
2019-02-26T09:47:35.415Z,73.03
2019-02-26T09:48:31.403Z,72.85
2019-02-26T09:49:35.853Z,72.27
2019-02-26T09:50:31.411Z,72.5
2019-02-26T09:51:35.071Z,72.02
2019-02-26T09:52:34.818Z,72.02
2019-02-26T09:53:31.380Z,71.73
2019-02-26T09:54:31.376Z,72.12
2019-02-26T09:55:31.380Z,72.12
2019-02-26T09:56:31.129Z,71.55
2019-02-26T09:57:31.177Z,71.17
2019-02-26T09:58:31.119Z,71.17
2019-02-26T09:59:35.896Z,71.3
2019-02-26T10:00:32.066Z,71.2
2019-02-26T10:01:35.388Z,70.53
2019-02-26T10:02:31.115Z,70.06
2019-02-26T10:03:36.668Z,69.96
2019-02-26T10:04:31.881Z,69.48
2019-02-26T10:05:31.328Z,69.2
2019-02-26T10:06:31.320Z,69.39
2019-02-26T10:07:36.033Z,69.29
2019-02-26T10:08:33.067Z,69.29
2019-02-26T10:09:32.752Z,69.01
2019-02-26T10:10:36.556Z,68.72
2019-02-26T10:11:31.315Z,68.63
2019-02-26T10:12:34.535Z,68.38
2019-02-26T10:13:31.303Z,68.18
2019-02-26T10:14:33.934Z,68.18
2019-02-26T10:15:32.236Z,67.8
2019-02-26T10:16:35.071Z,67.8
2019-02-26T10:17:33.239Z,67.61
2019-02-26T10:18:33.372Z,67.61
2019-02-26T10:19:35.634Z,67.04
2019-02-26T10:20:34.212Z,67.36
2019-02-26T10:21:32.862Z,67.07
2019-02-26T10:22:38.450Z,66.6
2019-02-26T10:23:35.264Z,66.12
2019-02-26T10:24:34.713Z,65.26
2019-02-26T10:25:35.465Z,65.74
2019-02-26T10:26:35.932Z,65.36
2019-02-26T10:27:38.267Z,65.87
2019-02-26T10:28:35.124Z,65.1
2019-02-26T10:29:32.354Z,65.01
2019-02-26T10:30:38.347Z,64.15
2019-02-26T10:31:31.246Z,63.76
2019-02-26T10:32:32.782Z,64.05
2019-02-26T10:33:31.545Z,63.76
2019-02-26T10:34:32.825Z,63.57
2019-02-26T10:35:36.617Z,64.05
2019-02-26T10:36:39.010Z,64.05
2019-02-26T10:37:36.082Z,63.86
2019-02-26T10:38:36.454Z,63.86
2019-02-26T10:39:32.106Z,63.57
2019-02-26T10:40:50.436Z,63.1
2019-02-26T10:41:31.215Z,62.84
2019-02-26T10:42:39.565Z,62.94
2019-02-26T10:43:30.964Z,62.84
2019-02-26T10:44:31.206Z,64.18
2019-02-26T10:45:35.952Z,64.18
2019-02-26T10:46:34.435Z,64.65
2019-02-26T10:47:34.630Z,63.8
2019-02-26T10:48:31.184Z,62.75
2019-02-26T10:49:31.264Z,62.27
2019-02-26T10:50:34.298Z,61.79
2019-02-26T10:51:31.195Z,62.46
2019-02-26T10:52:31.219Z,62.94
2019-02-26T10:53:31.178Z,62.55
2019-02-26T10:54:37.403Z,61.72
2019-02-26T10:55:39.184Z,61.35
2019-02-26T10:56:39.182Z,60.87
2019-02-26T10:57:34.275Z,60.64
2019-02-26T10:58:30.942Z,61.16
2019-02-26T10:59:31.163Z,61.35
2019-02-26T11:00:37.801Z,60.96
2019-02-26T11:01:33.936Z,61.06
2019-02-26T11:02:30.905Z,61.06
2019-02-26T11:03:35.293Z,60.39
2019-02-26T11:04:40.970Z,60.2
2019-02-26T11:05:31.157Z,59.72
2019-02-26T11:06:36.575Z,59.63
2019-02-26T11:07:37.512Z,59.53
2019-02-26T11:08:34.896Z,59.84
2019-02-26T11:09:34.260Z,59.27
2019-02-26T11:10:32.005Z,59.37
2019-02-26T11:11:35.561Z,58.61
2019-02-26T11:12:36.267Z,58.22
2019-02-26T11:13:31.132Z,57.65
2019-02-26T11:14:35.658Z,57.55
2019-02-26T11:15:36.045Z,57.55
2019-02-26T11:16:35.724Z,57.65
2019-02-26T11:17:33.912Z,57.26
2019-02-26T11:18:30.877Z,58.03
2019-02-26T11:19:38.804Z,59.56
2019-02-26T11:20:34.404Z,58.89
2019-02-26T11:21:30.877Z,57.17
2019-02-26T11:22:30.875Z,56.53
2019-02-26T11:23:34.567Z,57.01
2019-02-26T11:24:36.051Z,56.53
2019-02-26T11:25:31.112Z,57.68
2019-02-26T11:26:35.178Z,56.53
2019-02-26T11:27:31.099Z,56.53
2019-02-26T11:28:37.834Z,55.57
2019-02-26T11:29:35.824Z,54.9
2019-02-26T11:30:34.399Z,55.19
2019-02-26T11:31:31.111Z,55
2019-02-26T11:32:37.245Z,54.9
2019-02-26T11:33:30.878Z,54.8
2019-02-26T11:34:36.181Z,54.8
2019-02-26T11:35:31.101Z,54.61
2019-02-26T11:36:36.586Z,54.43
2019-02-26T11:37:32.717Z,57.2
2019-02-26T11:38:31.100Z,56.84
2019-02-26T11:39:31.094Z,54.36
2019-02-26T11:40:33.672Z,53.59
2019-02-26T11:41:35.442Z,53.4
2019-02-26T11:42:31.208Z,53.11
2019-02-26T11:43:31.437Z,55.51
2019-02-26T11:44:31.089Z,54.55
2019-02-26T11:45:32.688Z,54.55
2019-02-26T11:46:34.449Z,54.55
2019-02-26T11:47:32.654Z,53.3
2019-02-26T11:48:33.656Z,54.83
2019-02-26T11:49:31.222Z,55.12
2019-02-26T11:50:31.088Z,52.73
2019-02-26T11:51:41.785Z,54
2019-02-26T11:52:31.093Z,52.28
2019-02-26T11:53:32.436Z,51.99
2019-02-26T11:54:37.165Z,51.79
2019-02-26T11:55:36.898Z,52.28
2019-02-26T11:56:31.082Z,54.1
2019-02-26T11:57:37.127Z,51.89
2019-02-26T11:58:30.818Z,55.05
2019-02-26T11:59:33.337Z,55.15
2019-02-26T12:00:39.254Z,53.16
2019-02-26T12:01:34.457Z,53.07
2019-02-26T12:02:37.103Z,53.93
2019-02-26T12:03:36.866Z,53.93
2019-02-26T12:04:31.059Z,52.69
2019-02-26T12:05:38.311Z,50.38
2019-02-26T12:06:31.065Z,51.06
2019-02-26T12:07:34.712Z,52.3
2019-02-26T12:08:30.813Z,51.34
2019-02-26T12:09:35.608Z,50.77
2019-02-26T12:10:35.811Z,50.29
2019-02-26T12:11:31.068Z,51.15
2019-02-26T12:12:34.120Z,53.83
2019-02-26T12:13:31.062Z,55.56
2019-02-26T12:14:30.815Z,55.36
2019-02-26T12:15:35.683Z,53.74
2019-02-26T12:17:49.234Z,52.2
2019-02-26T12:18:48.961Z,51.37
2019-02-26T12:19:48.457Z,50.22
2019-02-26T12:20:50.803Z,49.93
2019-02-26T12:21:49.265Z,49.26
2019-02-26T12:22:50.321Z,48.88
2019-02-26T12:23:49.117Z,49.16
2019-02-26T12:24:47.743Z,48.59
2019-02-26T12:25:47.084Z,48.09
2019-02-26T12:26:49.948Z,48.3
2019-02-26T12:27:48.542Z,48.69
2019-02-26T12:28:46.534Z,50.12
2019-02-26T12:29:51.604Z,50.79
2019-02-26T12:30:48.825Z,49.84
2019-02-26T12:31:46.462Z,48.97
2019-02-26T12:32:50.503Z,48.11
2019-02-26T12:33:46.468Z,47.92
2019-02-26T12:34:51.403Z,48.02
2019-02-26T12:35:46.459Z,47.63
2019-02-26T12:36:48.030Z,47.17
2019-02-26T12:37:47.172Z,47.46
2019-02-26T12:38:48.054Z,47.85
2019-02-26T12:39:52.075Z,47.53
2019-02-26T12:40:50.634Z,47.25
2019-02-26T12:41:48.247Z,47.73
2019-02-26T12:42:46.467Z,47.82
2019-02-26T12:43:48.869Z,47.53
2019-02-26T12:44:47.907Z,47.44
2019-02-26T12:45:46.457Z,47.63
2019-02-26T12:46:50.867Z,47.82
2019-02-26T12:47:53.000Z,47.82
2019-02-26T12:48:50.299Z,47.92
2019-02-26T12:49:47.567Z,47.44
2019-02-26T12:50:46.458Z,47.06
2019-02-26T12:51:47.595Z,47.44
2019-02-26T12:54:12.184Z,46.67
2019-02-26T12:55:10.796Z,46.31
2019-02-26T12:56:10.709Z,46.31
2019-02-26T12:59:06.976Z,46.12